sensor_id;sensor_type;location;lat;lon;timestamp;pressure;altitude;pressure_sealevel;temperature;humidity
19736;BME280;32064;49.310;8.646;2023-08-31T00:00:43;99915.78;;;19.84;74.13
19736;BME280;32064;49.310;8.646;2023-08-31T00:03:08;99905.00;;;19.78;74.17
19736;BME280;32064;49.310;8.646;2023-08-31T00:05:42;99905.56;;;19.73;74.00
19736;BME280;32064;49.310;8.646;2023-08-31T00:08:08;99913.75;;;19.71;74.17
19736;BME280;32064;49.310;8.646;2023-08-31T00:10:34;99908.94;;;19.67;74.02
19736;BME280;32064;49.310;8.646;2023-08-31T00:13:01;99910.28;;;19.63;73.90
19736;BME280;32064;49.310;8.646;2023-08-31T00:15:26;99905.28;;;19.60;73.87
19736;BME280;32064;49.310;8.646;2023-08-31T00:17:53;99910.50;;;19.53;73.72
19736;BME280;32064;49.310;8.646;2023-08-31T00:20:19;99909.38;;;19.47;74.38
19736;BME280;32064;49.310;8.646;2023-08-31T00:22:44;99904.38;;;19.44;74.30
19736;BME280;32064;49.310;8.646;2023-08-31T00:25:09;99913.25;;;19.45;73.99
19736;BME280;32064;49.310;8.646;2023-08-31T00:27:35;99907.41;;;19.41;74.41
19736;BME280;32064;49.310;8.646;2023-08-31T00:30:04;99906.94;;;19.38;75.01
19736;BME280;32064;49.310;8.646;2023-08-31T00:32:32;99903.81;;;19.34;75.19
19736;BME280;32064;49.310;8.646;2023-08-31T00:34:59;99901.66;;;19.29;75.60
19736;BME280;32064;49.310;8.646;2023-08-31T00:37:24;99899.81;;;19.30;75.33
19736;BME280;32064;49.310;8.646;2023-08-31T00:39:50;99908.00;;;19.28;75.34
19736;BME280;32064;49.310;8.646;2023-08-31T00:42:18;99907.34;;;19.26;75.40
19736;BME280;32064;49.310;8.646;2023-08-31T00:44:43;99902.53;;;19.22;74.96
19736;BME280;32064;49.310;8.646;2023-08-31T00:47:09;99913.50;;;19.27;75.03
19736;BME280;32064;49.310;8.646;2023-08-31T00:49:35;99909.19;;;19.26;74.42
19736;BME280;32064;49.310;8.646;2023-08-31T00:52:01;99916.72;;;19.22;75.13
19736;BME280;32064;49.310;8.646;2023-08-31T00:54:26;99924.56;;;19.16;75.51
19736;BME280;32064;49.310;8.646;2023-08-31T00:56:53;99922.25;;;19.13;75.50
19736;BME280;32064;49.310;8.646;2023-08-31T00:59:19;99923.28;;;19.12;74.53
19736;BME280;32064;49.310;8.646;2023-08-31T01:01:55;99925.47;;;19.08;75.11
19736;BME280;32064;49.310;8.646;2023-08-31T01:04:33;99923.31;;;19.03;74.90
19736;BME280;32064;49.310;8.646;2023-08-31T01:07:27;99927.00;;;19.02;74.74
19736;BME280;32064;49.310;8.646;2023-08-31T01:10:27;99926.84;;;18.96;74.72
19736;BME280;32064;49.310;8.646;2023-08-31T01:13:01;99933.19;;;18.95;75.03
19736;BME280;32064;49.310;8.646;2023-08-31T01:15:30;99933.53;;;18.92;75.19
19736;BME280;32064;49.310;8.646;2023-08-31T01:17:58;99929.91;;;18.84;75.94
19736;BME280;32064;49.310;8.646;2023-08-31T01:20:37;99927.56;;;18.81;75.42
19736;BME280;32064;49.310;8.646;2023-08-31T01:23:10;99931.25;;;18.80;75.37
19736;BME280;32064;49.310;8.646;2023-08-31T01:25:38;99924.75;;;18.83;75.46
19736;BME280;32064;49.310;8.646;2023-08-31T01:28:06;99933.72;;;18.82;76.14
19736;BME280;32064;49.310;8.646;2023-08-31T01:30:31;99941.09;;;18.80;77.08
19736;BME280;32064;49.310;8.646;2023-08-31T01:32:57;99940.44;;;18.78;76.74
19736;BME280;32064;49.310;8.646;2023-08-31T01:35:23;99945.56;;;18.79;76.54
19736;BME280;32064;49.310;8.646;2023-08-31T01:38:00;99944.25;;;18.75;77.06
19736;BME280;32064;49.310;8.646;2023-08-31T01:43:01;99948.88;;;18.73;76.07
19736;BME280;32064;49.310;8.646;2023-08-31T01:45:26;99943.25;;;18.68;77.96
19736;BME280;32064;49.310;8.646;2023-08-31T01:47:52;99954.44;;;18.63;76.74
19736;BME280;32064;49.310;8.646;2023-08-31T01:50:18;99958.59;;;18.66;76.91
19736;BME280;32064;49.310;8.646;2023-08-31T01:52:43;99960.09;;;18.60;77.21
19736;BME280;32064;49.310;8.646;2023-08-31T01:55:09;99953.44;;;18.56;77.47
19736;BME280;32064;49.310;8.646;2023-08-31T01:57:34;99958.28;;;18.53;78.00
19736;BME280;32064;49.310;8.646;2023-08-31T02:00:00;99957.81;;;18.49;77.42
19736;BME280;32064;49.310;8.646;2023-08-31T02:02:25;99962.94;;;18.51;77.61
19736;BME280;32064;49.310;8.646;2023-08-31T02:04:51;99961.78;;;18.53;78.73
19736;BME280;32064;49.310;8.646;2023-08-31T02:07:17;99956.28;;;18.55;78.83
19736;BME280;32064;49.310;8.646;2023-08-31T02:09:42;99957.78;;;18.57;77.91
19736;BME280;32064;49.310;8.646;2023-08-31T02:12:08;99960.09;;;18.60;78.18
19736;BME280;32064;49.310;8.646;2023-08-31T02:14:36;99965.25;;;18.62;78.12
19736;BME280;32064;49.310;8.646;2023-08-31T02:17:02;99960.75;;;18.62;77.98
19736;BME280;32064;49.310;8.646;2023-08-31T02:19:27;99964.91;;;18.65;77.52
19736;BME280;32064;49.310;8.646;2023-08-31T02:21:53;99966.41;;;18.68;77.45
19736;BME280;32064;49.310;8.646;2023-08-31T02:24:18;99962.75;;;18.69;77.80
19736;BME280;32064;49.310;8.646;2023-08-31T02:26:44;99966.59;;;18.66;77.74
19736;BME280;32064;49.310;8.646;2023-08-31T02:29:09;99975.75;;;18.63;78.05
19736;BME280;32064;49.310;8.646;2023-08-31T02:31:34;99979.09;;;18.66;78.16
19736;BME280;32064;49.310;8.646;2023-08-31T02:34:00;99978.06;;;18.67;77.90
19736;BME280;32064;49.310;8.646;2023-08-31T02:36:25;99979.91;;;18.66;78.46
19736;BME280;32064;49.310;8.646;2023-08-31T02:38:50;99981.06;;;18.63;78.63
19736;BME280;32064;49.310;8.646;2023-08-31T02:41:18;99977.41;;;18.65;78.17
19736;BME280;32064;49.310;8.646;2023-08-31T02:43:43;99974.75;;;18.65;79.17
19736;BME280;32064;49.310;8.646;2023-08-31T02:46:08;99975.41;;;18.67;79.43
19736;BME280;32064;49.310;8.646;2023-08-31T02:48:34;99986.06;;;18.67;79.18
19736;BME280;32064;49.310;8.646;2023-08-31T02:50:59;99988.06;;;18.65;79.28
19736;BME280;32064;49.310;8.646;2023-08-31T02:53:30;99986.22;;;18.65;79.87
19736;BME280;32064;49.310;8.646;2023-08-31T02:55:56;99986.72;;;18.69;78.87
19736;BME280;32064;49.310;8.646;2023-08-31T02:58:22;99982.38;;;18.68;78.70
19736;BME280;32064;49.310;8.646;2023-08-31T03:00:48;99983.88;;;18.70;79.97
19736;BME280;32064;49.310;8.646;2023-08-31T03:03:17;99989.88;;;18.72;79.24
19736;BME280;32064;49.310;8.646;2023-08-31T03:05:43;99990.25;;;18.77;78.22
19736;BME280;32064;49.310;8.646;2023-08-31T03:08:09;99992.25;;;18.75;79.95
19736;BME280;32064;49.310;8.646;2023-08-31T03:10:35;99991.72;;;18.72;79.97
19736;BME280;32064;49.310;8.646;2023-08-31T03:13:01;99998.38;;;18.68;79.34
19736;BME280;32064;49.310;8.646;2023-08-31T03:15:28;99998.38;;;18.68;79.45
19736;BME280;32064;49.310;8.646;2023-08-31T03:17:53;100004.06;;;18.65;80.54
19736;BME280;32064;49.310;8.646;2023-08-31T03:20:18;100002.22;;;18.65;80.18
19736;BME280;32064;49.310;8.646;2023-08-31T03:22:44;99999.38;;;18.67;79.68
19736;BME280;32064;49.310;8.646;2023-08-31T03:25:09;100008.06;;;18.69;80.73
19736;BME280;32064;49.310;8.646;2023-08-31T03:27:35;100011.22;;;18.72;80.82
19736;BME280;32064;49.310;8.646;2023-08-31T03:30:01;100018.06;;;18.75;80.01
19736;BME280;32064;49.310;8.646;2023-08-31T03:32:27;100011.56;;;18.77;80.40
19736;BME280;32064;49.310;8.646;2023-08-31T03:34:52;100017.53;;;18.79;79.82
19736;BME280;32064;49.310;8.646;2023-08-31T03:37:17;100007.88;;;18.78;79.49
19736;BME280;32064;49.310;8.646;2023-08-31T03:39:49;100015.72;;;18.80;79.39
19736;BME280;32064;49.310;8.646;2023-08-31T03:42:15;100019.38;;;18.79;80.09
19736;BME280;32064;49.310;8.646;2023-08-31T03:44:40;100016.72;;;18.79;79.78
19736;BME280;32064;49.310;8.646;2023-08-31T03:47:06;100013.72;;;18.74;79.82
19736;BME280;32064;49.310;8.646;2023-08-31T03:49:32;100023.53;;;18.73;79.57
19736;BME280;32064;49.310;8.646;2023-08-31T03:51:58;100018.38;;;18.72;78.61
19736;BME280;32064;49.310;8.646;2023-08-31T03:54:24;100017.56;;;18.71;79.03
19736;BME280;32064;49.310;8.646;2023-08-31T03:56:49;100027.91;;;18.74;80.11
19736;BME280;32064;49.310;8.646;2023-08-31T03:59:15;100023.69;;;18.72;80.29
19736;BME280;32064;49.310;8.646;2023-08-31T04:01:40;100025.53;;;18.71;80.00
19736;BME280;32064;49.310;8.646;2023-08-31T04:04:05;100026.72;;;18.69;79.07
19736;BME280;32064;49.310;8.646;2023-08-31T04:06:31;100028.72;;;18.67;79.57
19736;BME280;32064;49.310;8.646;2023-08-31T04:08:56;100032.69;;;18.62;79.67
19736;BME280;32064;49.310;8.646;2023-08-31T04:11:22;100035.34;;;18.62;80.44
19736;BME280;32064;49.310;8.646;2023-08-31T04:13:48;100035.53;;;18.61;79.27
19736;BME280;32064;49.310;8.646;2023-08-31T04:16:13;100046.19;;;18.61;79.31
19736;BME280;32064;49.310;8.646;2023-08-31T04:18:38;100046.34;;;18.59;78.33
19736;BME280;32064;49.310;8.646;2023-08-31T04:21:05;100044.84;;;18.57;79.23
19736;BME280;32064;49.310;8.646;2023-08-31T04:23:31;100062.03;;;18.54;78.35
19736;BME280;32064;49.310;8.646;2023-08-31T04:25:56;100054.69;;;18.48;78.62
19736;BME280;32064;49.310;8.646;2023-08-31T04:28:23;100060.03;;;18.48;78.57
19736;BME280;32064;49.310;8.646;2023-08-31T04:30:49;100065.19;;;18.50;79.01
19736;BME280;32064;49.310;8.646;2023-08-31T04:33:14;100069.84;;;18.48;79.59
19736;BME280;32064;49.310;8.646;2023-08-31T04:35:40;100073.53;;;18.47;79.11
19736;BME280;32064;49.310;8.646;2023-08-31T04:38:05;100069.22;;;18.46;78.04
19736;BME280;32064;49.310;8.646;2023-08-31T04:40:31;100072.03;;;18.44;78.62
19736;BME280;32064;49.310;8.646;2023-08-31T04:42:56;100066.22;;;18.40;79.35
19736;BME280;32064;49.310;8.646;2023-08-31T04:45:21;100063.00;;;18.37;79.04
19736;BME280;32064;49.310;8.646;2023-08-31T04:47:47;100065.03;;;18.35;79.56
19736;BME280;32064;49.310;8.646;2023-08-31T04:50:14;100064.22;;;18.34;78.12
19736;BME280;32064;49.310;8.646;2023-08-31T04:52:40;100068.03;;;18.32;79.90
19736;BME280;32064;49.310;8.646;2023-08-31T04:55:06;100059.53;;;18.28;79.96
19736;BME280;32064;49.310;8.646;2023-08-31T04:57:35;100066.00;;;18.26;79.30
19736;BME280;32064;49.310;8.646;2023-08-31T05:00:00;100074.84;;;18.26;78.69
19736;BME280;32064;49.310;8.646;2023-08-31T05:02:27;100074.69;;;18.28;78.77
19736;BME280;32064;49.310;8.646;2023-08-31T05:04:52;100076.34;;;18.29;78.99
19736;BME280;32064;49.310;8.646;2023-08-31T05:07:18;100072.50;;;18.31;79.70
19736;BME280;32064;49.310;8.646;2023-08-31T05:09:43;100083.50;;;18.28;78.95
19736;BME280;32064;49.310;8.646;2023-08-31T05:12:09;100091.16;;;18.31;78.85
19736;BME280;32064;49.310;8.646;2023-08-31T05:14:34;100089.16;;;18.33;80.34
19736;BME280;32064;49.310;8.646;2023-08-31T05:17:03;100098.31;;;18.39;79.17
19736;BME280;32064;49.310;8.646;2023-08-31T05:19:30;100101.47;;;18.43;79.33
19736;BME280;32064;49.310;8.646;2023-08-31T05:21:55;100107.34;;;18.46;79.54
19736;BME280;32064;49.310;8.646;2023-08-31T05:24:20;100107.97;;;18.48;79.30
19736;BME280;32064;49.310;8.646;2023-08-31T05:26:46;100105.16;;;18.50;79.33
19736;BME280;32064;49.310;8.646;2023-08-31T05:29:11;100108.16;;;18.47;80.07
19736;BME280;32064;49.310;8.646;2023-08-31T05:31:37;100116.16;;;18.47;79.81
19736;BME280;32064;49.310;8.646;2023-08-31T05:34:02;100117.47;;;18.51;78.52
19736;BME280;32064;49.310;8.646;2023-08-31T05:36:28;100128.66;;;18.54;79.61
19736;BME280;32064;49.310;8.646;2023-08-31T05:38:53;100127.47;;;18.57;79.74
19736;BME280;32064;49.310;8.646;2023-08-31T05:41:19;100129.97;;;18.58;79.56
19736;BME280;32064;49.310;8.646;2023-08-31T05:43:44;100129.47;;;18.63;79.78
19736;BME280;32064;49.310;8.646;2023-08-31T05:46:10;100137.16;;;18.66;78.38
19736;BME280;32064;49.310;8.646;2023-08-31T05:48:36;100129.78;;;18.68;78.75
19736;BME280;32064;49.310;8.646;2023-08-31T05:51:02;100138.31;;;18.72;79.24
19736;BME280;32064;49.310;8.646;2023-08-31T05:53:29;100134.28;;;18.68;78.54
19736;BME280;32064;49.310;8.646;2023-08-31T05:55:55;100130.66;;;18.69;79.36
19736;BME280;32064;49.310;8.646;2023-08-31T05:58:29;100133.81;;;18.72;79.98
19736;BME280;32064;49.310;8.646;2023-08-31T06:00:55;100135.47;;;18.73;79.00
19736;BME280;32064;49.310;8.646;2023-08-31T06:03:20;100138.69;;;18.77;78.71
19736;BME280;32064;49.310;8.646;2023-08-31T06:05:45;100141.16;;;18.78;79.65
19736;BME280;32064;49.310;8.646;2023-08-31T06:08:11;100142.66;;;18.81;79.31
19736;BME280;32064;49.310;8.646;2023-08-31T06:10:36;100139.16;;;18.80;79.44
19736;BME280;32064;49.310;8.646;2023-08-31T06:13:02;100136.84;;;18.86;79.07
19736;BME280;32064;49.310;8.646;2023-08-31T06:15:28;100143.50;;;18.90;79.81
19736;BME280;32064;49.310;8.646;2023-08-31T06:17:53;100136.16;;;18.92;79.06
19736;BME280;32064;49.310;8.646;2023-08-31T06:20:18;100140.16;;;18.96;79.47
19736;BME280;32064;49.310;8.646;2023-08-31T06:22:44;100151.00;;;19.02;80.31
19736;BME280;32064;49.310;8.646;2023-08-31T06:25:09;100153.63;;;19.11;79.17
19736;BME280;32064;49.310;8.646;2023-08-31T06:27:36;100150.78;;;19.20;79.05
19736;BME280;32064;49.310;8.646;2023-08-31T06:30:02;100157.28;;;19.26;78.92
19736;BME280;32064;49.310;8.646;2023-08-31T06:32:28;100170.13;;;19.31;79.23
19736;BME280;32064;49.310;8.646;2023-08-31T06:34:53;100167.94;;;19.34;78.64
19736;BME280;32064;49.310;8.646;2023-08-31T06:37:18;100178.41;;;19.36;78.89
19736;BME280;32064;49.310;8.646;2023-08-31T06:39:45;100177.91;;;19.40;78.37
19736;BME280;32064;49.310;8.646;2023-08-31T06:42:10;100172.56;;;19.48;78.94
19736;BME280;32064;49.310;8.646;2023-08-31T06:44:36;100166.38;;;19.56;77.47
19736;BME280;32064;49.310;8.646;2023-08-31T06:47:01;100160.16;;;19.64;78.01
19736;BME280;32064;49.310;8.646;2023-08-31T06:49:28;100165.03;;;19.68;77.10
19736;BME280;32064;49.310;8.646;2023-08-31T06:51:55;100171.50;;;19.74;77.08
19736;BME280;32064;49.310;8.646;2023-08-31T06:54:20;100178.34;;;19.77;76.04
19736;BME280;32064;49.310;8.646;2023-08-31T06:56:46;100185.81;;;19.81;76.54
19736;BME280;32064;49.310;8.646;2023-08-31T06:59:11;100174.97;;;19.83;76.50
19736;BME280;32064;49.310;8.646;2023-08-31T07:01:36;100178.44;;;19.91;75.97
19736;BME280;32064;49.310;8.646;2023-08-31T07:04:02;100178.09;;;19.94;75.11
19736;BME280;32064;49.310;8.646;2023-08-31T07:06:29;100181.03;;;20.08;74.71
19736;BME280;32064;49.310;8.646;2023-08-31T07:08:55;100183.09;;;20.29;74.93
19736;BME280;32064;49.310;8.646;2023-08-31T07:11:20;100189.97;;;20.54;75.15
19736;BME280;32064;49.310;8.646;2023-08-31T07:13:45;100196.44;;;20.83;74.39
19736;BME280;32064;49.310;8.646;2023-08-31T07:16:11;100197.53;;;21.12;72.90
19736;BME280;32064;49.310;8.646;2023-08-31T07:18:36;100192.97;;;21.20;72.65
19736;BME280;32064;49.310;8.646;2023-08-31T07:21:02;100197.28;;;21.21;71.18
19736;BME280;32064;49.310;8.646;2023-08-31T07:23:30;100188.22;;;21.22;70.56
19736;BME280;32064;49.310;8.646;2023-08-31T07:25:58;100198.31;;;21.20;70.20
19736;BME280;32064;49.310;8.646;2023-08-31T07:28:25;100197.53;;;21.49;70.57
19736;BME280;32064;49.310;8.646;2023-08-31T07:31:00;100210.44;;;22.05;72.79
19736;BME280;32064;49.310;8.646;2023-08-31T07:33:26;100204.09;;;22.64;72.06
19736;BME280;32064;49.310;8.646;2023-08-31T07:35:51;100202.84;;;23.31;68.93
19736;BME280;32064;49.310;8.646;2023-08-31T07:38:16;100211.69;;;23.88;67.45
19736;BME280;32064;49.310;8.646;2023-08-31T07:40:42;100214.56;;;24.34;65.83
19736;BME280;32064;49.310;8.646;2023-08-31T07:43:07;100219.84;;;24.49;63.10
19736;BME280;32064;49.310;8.646;2023-08-31T07:45:33;100208.84;;;24.44;62.06
19736;BME280;32064;49.310;8.646;2023-08-31T07:47:58;100207.94;;;24.30;61.65
19736;BME280;32064;49.310;8.646;2023-08-31T07:50:23;100208.56;;;24.32;61.33
19736;BME280;32064;49.310;8.646;2023-08-31T07:52:49;100213.13;;;24.32;60.23
19736;BME280;32064;49.310;8.646;2023-08-31T07:55:14;100217.47;;;24.26;59.45
19736;BME280;32064;49.310;8.646;2023-08-31T07:57:39;100229.81;;;24.14;59.92
19736;BME280;32064;49.310;8.646;2023-08-31T08:00:05;100225.81;;;24.03;59.12
19736;BME280;32064;49.310;8.646;2023-08-31T08:02:31;100231.56;;;23.93;59.27
19736;BME280;32064;49.310;8.646;2023-08-31T08:04:56;100245.66;;;23.67;59.14
19736;BME280;32064;49.310;8.646;2023-08-31T08:07:22;100237.94;;;23.58;57.40
19736;BME280;32064;49.310;8.646;2023-08-31T08:09:47;100240.59;;;23.51;58.42
19736;BME280;32064;49.310;8.646;2023-08-31T08:12:13;100246.06;;;23.36;57.78
19736;BME280;32064;49.310;8.646;2023-08-31T08:14:39;100245.53;;;23.19;58.80
19736;BME280;32064;49.310;8.646;2023-08-31T08:17:04;100253.06;;;23.09;58.30
19736;BME280;32064;49.310;8.646;2023-08-31T08:19:30;100246.19;;;23.00;58.89
19736;BME280;32064;49.310;8.646;2023-08-31T08:21:55;100255.28;;;22.84;59.56
19736;BME280;32064;49.310;8.646;2023-08-31T08:24:20;100252.34;;;22.79;58.60
19736;BME280;32064;49.310;8.646;2023-08-31T08:26:46;100251.88;;;22.75;59.09
19736;BME280;32064;49.310;8.646;2023-08-31T08:29:11;100255.53;;;22.68;58.93
19736;BME280;32064;49.310;8.646;2023-08-31T08:31:37;100250.72;;;22.63;60.06
19736;BME280;32064;49.310;8.646;2023-08-31T08:34:02;100260.09;;;22.52;58.96
19736;BME280;32064;49.310;8.646;2023-08-31T08:36:29;100257.53;;;22.44;59.84
19736;BME280;32064;49.310;8.646;2023-08-31T08:38:54;100259.59;;;22.42;59.21
19736;BME280;32064;49.310;8.646;2023-08-31T08:41:23;100256.91;;;22.42;59.58
19736;BME280;32064;49.310;8.646;2023-08-31T08:43:50;100259.81;;;22.47;59.79
19736;BME280;32064;49.310;8.646;2023-08-31T08:46:16;100265.00;;;22.49;58.63
19736;BME280;32064;49.310;8.646;2023-08-31T08:48:42;100267.53;;;22.72;58.81
19736;BME280;32064;49.310;8.646;2023-08-31T08:51:10;100267.69;;;23.06;58.57
19736;BME280;32064;49.310;8.646;2023-08-31T08:53:35;100266.56;;;23.44;58.48
19736;BME280;32064;49.310;8.646;2023-08-31T08:56:03;100251.59;;;23.56;56.96
19736;BME280;32064;49.310;8.646;2023-08-31T08:58:29;100253.91;;;23.66;56.89
19736;BME280;32064;49.310;8.646;2023-08-31T09:00:55;100255.38;;;23.68;57.12
19736;BME280;32064;49.310;8.646;2023-08-31T09:03:22;100253.91;;;23.66;56.71
19736;BME280;32064;49.310;8.646;2023-08-31T09:05:48;100268.53;;;23.57;56.96
19736;BME280;32064;49.310;8.646;2023-08-31T09:08:14;100273.19;;;23.41;56.33
19736;BME280;32064;49.310;8.646;2023-08-31T09:10:44;100261.78;;;23.39;56.85
19736;BME280;32064;49.310;8.646;2023-08-31T09:13:11;100270.25;;;23.36;57.11
19736;BME280;32064;49.310;8.646;2023-08-31T09:15:47;100260.84;;;23.25;56.10
19736;BME280;32064;49.310;8.646;2023-08-31T09:18:16;100264.63;;;23.31;56.21
19736;BME280;32064;49.310;8.646;2023-08-31T09:20:46;100268.38;;;23.37;56.18
19736;BME280;32064;49.310;8.646;2023-08-31T09:23:12;100259.50;;;23.36;56.50
19736;BME280;32064;49.310;8.646;2023-08-31T09:25:52;100256.66;;;23.44;55.54
19736;BME280;32064;49.310;8.646;2023-08-31T09:28:22;100269.88;;;23.46;56.17
19736;BME280;32064;49.310;8.646;2023-08-31T09:30:49;100268.09;;;23.53;55.83
19736;BME280;32064;49.310;8.646;2023-08-31T09:33:16;100263.97;;;23.57;55.12
19736;BME280;32064;49.310;8.646;2023-08-31T09:35:53;100260.03;;;23.53;54.91
19736;BME280;32064;49.310;8.646;2023-08-31T09:38:19;100262.50;;;23.54;55.42
19736;BME280;32064;49.310;8.646;2023-08-31T09:40:44;100264.19;;;23.56;55.35
19736;BME280;32064;49.310;8.646;2023-08-31T09:43:10;100260.22;;;23.51;54.05
19736;BME280;32064;49.310;8.646;2023-08-31T09:45:36;100261.69;;;23.54;53.98
19736;BME280;32064;49.310;8.646;2023-08-31T09:48:03;100259.00;;;23.82;54.29
19736;BME280;32064;49.310;8.646;2023-08-31T09:50:33;100263.09;;;24.13;53.55
19736;BME280;32064;49.310;8.646;2023-08-31T09:53:03;100264.00;;;24.33;53.45
19736;BME280;32064;49.310;8.646;2023-08-31T09:55:31;100262.38;;;24.39;52.51
19736;BME280;32064;49.310;8.646;2023-08-31T09:57:59;100268.19;;;24.42;52.75
19736;BME280;32064;49.310;8.646;2023-08-31T10:00:26;100257.03;;;24.46;51.34
19736;BME280;32064;49.310;8.646;2023-08-31T10:02:53;100261.00;;;24.56;49.95
19736;BME280;32064;49.310;8.646;2023-08-31T10:05:21;100266.31;;;25.71;49.02
19736;BME280;32064;49.310;8.646;2023-08-31T10:07:48;100256.03;;;26.19;47.18
19736;BME280;32064;49.310;8.646;2023-08-31T10:10:15;100264.97;;;26.65;46.15
19736;BME280;32064;49.310;8.646;2023-08-31T10:12:41;100265.63;;;26.92;46.81
19736;BME280;32064;49.310;8.646;2023-08-31T10:15:08;100265.22;;;27.20;44.54
19736;BME280;32064;49.310;8.646;2023-08-31T10:17:34;100268.50;;;26.97;45.24
19736;BME280;32064;49.310;8.646;2023-08-31T10:20:00;100267.28;;;26.61;45.38
19736;BME280;32064;49.310;8.646;2023-08-31T10:22:26;100260.94;;;26.36;44.66
19736;BME280;32064;49.310;8.646;2023-08-31T10:24:59;100263.09;;;26.14;44.79
19736;BME280;32064;49.310;8.646;2023-08-31T10:27:25;100257.88;;;26.71;45.13
19736;BME280;32064;49.310;8.646;2023-08-31T10:29:50;100270.41;;;26.90;44.55
19736;BME280;32064;49.310;8.646;2023-08-31T10:32:19;100262.56;;;27.14;42.43
19736;BME280;32064;49.310;8.646;2023-08-31T10:35:05;100254.19;;;28.46;43.43
19736;BME280;32064;49.310;8.646;2023-08-31T10:37:31;100252.28;;;29.89;40.75
19736;BME280;32064;49.310;8.646;2023-08-31T10:40:07;100254.25;;;30.05;38.70
19736;BME280;32064;49.310;8.646;2023-08-31T10:42:32;100258.16;;;30.09;37.85
19736;BME280;32064;49.310;8.646;2023-08-31T10:45:05;100259.75;;;29.70;37.47
19736;BME280;32064;49.310;8.646;2023-08-31T10:47:40;100257.59;;;29.37;37.37
19736;BME280;32064;49.310;8.646;2023-08-31T10:50:22;100251.84;;;29.45;38.23
19736;BME280;32064;49.310;8.646;2023-08-31T10:52:48;100253.13;;;29.66;37.75
19736;BME280;32064;49.310;8.646;2023-08-31T10:55:14;100253.00;;;29.96;37.47
19736;BME280;32064;49.310;8.646;2023-08-31T10:57:40;100246.97;;;29.35;36.08
19736;BME280;32064;49.310;8.646;2023-08-31T11:00:09;100240.44;;;30.18;36.17
19736;BME280;32064;49.310;8.646;2023-08-31T11:02:43;100238.16;;;30.84;33.73
19736;BME280;32064;49.310;8.646;2023-08-31T11:05:19;100229.44;;;31.16;33.97
19736;BME280;32064;49.310;8.646;2023-08-31T11:07:47;100236.38;;;30.61;34.08
19736;BME280;32064;49.310;8.646;2023-08-31T11:10:18;100231.69;;;30.16;33.69
19736;BME280;32064;49.310;8.646;2023-08-31T11:12:52;100234.75;;;29.68;33.68
19736;BME280;32064;49.310;8.646;2023-08-31T11:15:19;100243.13;;;29.78;35.11
19736;BME280;32064;49.310;8.646;2023-08-31T11:17:45;100242.41;;;29.47;34.59
19736;BME280;32064;49.310;8.646;2023-08-31T11:20:19;100236.84;;;29.30;34.44
19736;BME280;32064;49.310;8.646;2023-08-31T11:22:49;100242.63;;;29.22;34.58
19736;BME280;32064;49.310;8.646;2023-08-31T11:25:16;100248.03;;;29.22;35.66
19736;BME280;32064;49.310;8.646;2023-08-31T11:27:53;100235.44;;;28.74;35.21
19736;BME280;32064;49.310;8.646;2023-08-31T11:30:18;100235.38;;;28.51;35.46
19736;BME280;32064;49.310;8.646;2023-08-31T11:32:47;100238.75;;;28.28;35.95
19736;BME280;32064;49.310;8.646;2023-08-31T11:35:14;100237.44;;;28.00;36.87
19736;BME280;32064;49.310;8.646;2023-08-31T11:37:41;100248.00;;;27.65;37.89
19736;BME280;32064;49.310;8.646;2023-08-31T11:40:08;100237.38;;;27.20;36.85
19736;BME280;32064;49.310;8.646;2023-08-31T11:42:34;100240.97;;;26.82;38.41
19736;BME280;32064;49.310;8.646;2023-08-31T11:44:59;100241.00;;;26.37;38.08
19736;BME280;32064;49.310;8.646;2023-08-31T11:47:25;100238.78;;;26.27;38.57
19736;BME280;32064;49.310;8.646;2023-08-31T11:49:51;100240.63;;;26.27;38.91
19736;BME280;32064;49.310;8.646;2023-08-31T11:52:17;100240.41;;;26.28;39.09
19736;BME280;32064;49.310;8.646;2023-08-31T11:54:43;100238.31;;;26.37;39.30
19736;BME280;32064;49.310;8.646;2023-08-31T11:57:09;100241.72;;;26.64;39.39
19736;BME280;32064;49.310;8.646;2023-08-31T11:59:36;100235.34;;;26.83;39.09
19736;BME280;32064;49.310;8.646;2023-08-31T12:02:05;100236.13;;;26.91;38.94
19736;BME280;32064;49.310;8.646;2023-08-31T12:04:31;100237.03;;;27.09;39.85
19736;BME280;32064;49.310;8.646;2023-08-31T12:07:05;100239.06;;;27.14;39.51
19736;BME280;32064;49.310;8.646;2023-08-31T12:09:32;100241.00;;;27.07;38.68
19736;BME280;32064;49.310;8.646;2023-08-31T12:11:58;100241.66;;;27.02;38.68
19736;BME280;32064;49.310;8.646;2023-08-31T12:14:25;100244.06;;;26.85;40.20
19736;BME280;32064;49.310;8.646;2023-08-31T12:16:52;100245.84;;;26.67;40.36
19736;BME280;32064;49.310;8.646;2023-08-31T12:19:18;100247.38;;;26.56;40.17
19736;BME280;32064;49.310;8.646;2023-08-31T12:21:45;100242.63;;;26.45;40.76
19736;BME280;32064;49.310;8.646;2023-08-31T12:24:11;100243.50;;;26.38;41.27
19736;BME280;32064;49.310;8.646;2023-08-31T12:26:37;100246.59;;;26.35;41.07
19736;BME280;32064;49.310;8.646;2023-08-31T12:29:03;100243.06;;;26.41;40.92
19736;BME280;32064;49.310;8.646;2023-08-31T12:31:32;100239.25;;;26.49;42.29
19736;BME280;32064;49.310;8.646;2023-08-31T12:33:59;100226.13;;;26.66;42.31
19736;BME280;32064;49.310;8.646;2023-08-31T12:36:25;100240.47;;;26.92;42.05
19736;BME280;32064;49.310;8.646;2023-08-31T12:38:51;100237.25;;;27.08;42.54
19736;BME280;32064;49.310;8.646;2023-08-31T12:41:19;100238.25;;;27.14;41.29
19736;BME280;32064;49.310;8.646;2023-08-31T12:43:45;100237.88;;;27.35;42.10
19736;BME280;32064;49.310;8.646;2023-08-31T12:46:10;100243.88;;;27.37;41.16
19736;BME280;32064;49.310;8.646;2023-08-31T12:48:39;100252.13;;;27.24;40.88
19736;BME280;32064;49.310;8.646;2023-08-31T12:51:04;100243.28;;;27.03;40.76
19736;BME280;32064;49.310;8.646;2023-08-31T12:53:29;100249.75;;;27.02;41.15